createdAt,value
2022-10-14T00:00:20.921Z,99463.19
2022-10-14T00:01:24.611Z,99468.53
2022-10-14T00:02:26.889Z,99466.13
2022-10-14T00:03:29.967Z,99462.31
2022-10-14T00:04:32.247Z,99460.63
2022-10-14T00:05:34.479Z,99460.38
2022-10-14T00:06:36.633Z,99457.22
2022-10-14T00:07:39.417Z,99461.41
2022-10-14T00:08:43.072Z,99460.91
2022-10-14T00:09:49.251Z,99457.25
2022-10-14T00:10:51.703Z,99452.22
2022-10-14T00:11:53.845Z,99445.81
2022-10-14T00:12:56.082Z,99449.13
2022-10-14T00:14:04.593Z,99441.50
2022-10-14T00:15:07.655Z,99436.13
2022-10-14T00:16:24.913Z,99450.97
2022-10-14T00:17:27.118Z,99445.69
2022-10-14T00:18:30.693Z,99440.63
2022-10-14T00:19:32.861Z,99441.31
2022-10-14T00:20:36.224Z,99436.63
2022-10-14T00:21:41.079Z,99434.59
2022-10-14T00:22:44.074Z,99441.50
2022-10-14T00:23:46.537Z,99428.47
2022-10-14T00:24:48.726Z,99429.84
2022-10-14T00:25:51.084Z,99434.56
2022-10-14T00:26:54.117Z,99439.69
2022-10-14T00:27:56.566Z,99435.41
2022-10-14T00:29:00.014Z,99440.44
2022-10-14T00:30:06.616Z,99434.94
2022-10-14T00:31:09.279Z,99439.88
2022-10-14T00:32:11.891Z,99437.03
2022-10-14T00:33:14.089Z,99442.31
2022-10-14T00:34:16.321Z,99442.91
2022-10-14T00:35:19.027Z,99438.66
2022-10-14T00:36:23.026Z,99432.34
2022-10-14T00:37:25.460Z,99427.00
2022-10-14T00:38:28.413Z,99436.81
2022-10-14T00:39:30.650Z,99436.34
2022-10-14T00:40:33.332Z,99439.59
2022-10-14T00:41:35.753Z,99443.09
2022-10-14T00:42:37.971Z,99438.72
2022-10-14T00:44:24.903Z,99439.50
2022-10-14T00:45:27.101Z,99440.28
2022-10-14T00:46:34.477Z,99446.25
2022-10-14T00:47:37.392Z,99441.13
2022-10-14T00:48:43.729Z,99443.69
2022-10-14T00:49:45.895Z,99442.75
2022-10-14T00:50:54.626Z,99443.56
2022-10-14T00:52:08.932Z,99441.13
2022-10-14T00:53:13.942Z,99446.19
2022-10-14T00:54:18.576Z,99443.94
2022-10-14T00:55:21.312Z,99442.16
2022-10-14T00:56:28.238Z,99445.84
2022-10-14T00:57:31.431Z,99438.75
2022-10-14T00:58:34.583Z,99439.66
2022-10-14T00:59:38.228Z,99441.44
2022-10-14T01:00:40.469Z,99436.38
2022-10-14T01:01:42.707Z,99443.28
2022-10-14T01:02:46.616Z,99426.84
2022-10-14T01:03:49.070Z,99432.97
2022-10-14T01:04:51.361Z,99440.16
2022-10-14T01:06:00.106Z,99428.06
2022-10-14T01:07:22.445Z,99437.13
2022-10-14T01:08:44.556Z,99432.72
2022-10-14T01:09:59.975Z,99439.63
2022-10-14T01:11:14.712Z,99420.69
2022-10-14T01:12:50.074Z,99420.47
2022-10-14T01:14:21.067Z,99422.34
2022-10-14T01:15:32.317Z,99428.00
2022-10-14T01:17:06.154Z,99419.78
2022-10-14T01:18:19.971Z,99425.00
2022-10-14T01:19:59.644Z,99426.59
2022-10-14T01:21:15.708Z,99413.66
2022-10-14T01:22:27.266Z,99420.00
2022-10-14T01:24:11.388Z,99406.75
2022-10-14T01:25:34.760Z,99424.97
2022-10-14T01:27:18.665Z,99420.47
2022-10-14T01:28:28.947Z,99417.78
2022-10-14T01:29:48.991Z,99418.00
2022-10-14T01:31:03.272Z,99413.59
2022-10-14T01:32:20.124Z,99411.78
2022-10-14T01:33:25.774Z,99417.06
2022-10-14T01:34:36.687Z,99401.84
2022-10-14T01:35:50.675Z,99403.72
2022-10-14T01:37:04.954Z,99408.06
2022-10-14T01:38:13.033Z,99403.19
2022-10-14T01:39:21.540Z,99405.44
2022-10-14T01:40:47.360Z,99396.97
2022-10-14T01:41:58.523Z,99401.84
2022-10-14T01:43:03.076Z,99389.88
2022-10-14T01:44:10.155Z,99403.03
2022-10-14T01:45:20.063Z,99397.44
2022-10-14T01:46:24.483Z,99388.06
2022-10-14T01:47:30.312Z,99392.31
2022-10-14T01:48:36.857Z,99389.69
2022-10-14T01:49:44.259Z,99386.91
2022-10-14T01:50:50.017Z,99390.63
2022-10-14T01:51:58.624Z,99377.78
2022-10-14T01:53:11.810Z,99390.94
2022-10-14T01:54:22.171Z,99377.19
2022-10-14T01:55:28.412Z,99385.09
2022-10-14T01:56:34.980Z,99379.75
2022-10-14T01:57:43.492Z,99380.22
2022-10-14T01:58:46.554Z,99378.59
2022-10-14T01:59:50.282Z,99379.47
2022-10-14T02:00:53.035Z,99382.66
2022-10-14T02:01:55.297Z,99381.63
2022-10-14T02:02:57.563Z,99382.44
2022-10-14T02:03:59.689Z,99386.91
2022-10-14T02:05:10.716Z,99376.69
2022-10-14T02:06:24.986Z,99378.84
2022-10-14T02:07:47.397Z,99380.63
2022-10-14T02:09:09.951Z,99385.34
2022-10-14T02:10:41.735Z,99372.97
2022-10-14T02:12:18.487Z,99372.84
2022-10-14T02:13:42.986Z,99368.84
2022-10-14T02:15:00.735Z,99370.22
2022-10-14T02:16:26.203Z,99369.53
2022-10-14T02:17:34.153Z,99363.41
2022-10-14T02:18:57.002Z,99354.97
2022-10-14T02:20:43.795Z,99349.53
2022-10-14T02:22:15.691Z,99353.59
2022-10-14T02:23:35.175Z,99339.06
2022-10-14T02:24:44.460Z,99344.72
2022-10-14T02:25:48.998Z,99340.88
2022-10-14T02:26:55.521Z,99332.19
2022-10-14T02:28:00.539Z,99337.44
2022-10-14T02:29:05.013Z,99330.78
2022-10-14T02:30:09.487Z,99333.59
2022-10-14T02:31:16.186Z,99326.91
2022-10-14T02:32:22.805Z,99327.81
2022-10-14T02:33:37.845Z,99325.56
2022-10-14T02:34:48.149Z,99317.06
2022-10-14T02:35:51.919Z,99313.03
2022-10-14T02:36:55.421Z,99320.88
2022-10-14T02:37:59.588Z,99323.34
2022-10-14T02:39:03.108Z,99313.50
2022-10-14T02:40:11.335Z,99314.25
2022-10-14T02:41:18.875Z,99314.72
2022-10-14T02:42:21.269Z,99322.56
2022-10-14T02:43:23.683Z,99320.94
2022-10-14T02:44:25.867Z,99322.63
2022-10-14T02:45:28.160Z,99325.91
2022-10-14T02:46:30.491Z,99320.72
2022-10-14T02:47:32.676Z,99318.75
2022-10-14T02:48:34.950Z,99330.78
2022-10-14T02:49:37.792Z,99329.94
2022-10-14T02:50:42.411Z,99329.00
2022-10-14T02:51:44.662Z,99319.16
2022-10-14T02:52:47.554Z,99326.63
2022-10-14T02:53:49.912Z,99325.22
2022-10-14T02:54:52.087Z,99321.72
2022-10-14T02:55:54.248Z,99314.97
2022-10-14T02:56:56.440Z,99316.69
2022-10-14T02:57:59.757Z,99318.88
2022-10-14T02:59:02.107Z,99318.69
2022-10-14T03:00:06.603Z,99312.41
2022-10-14T03:01:11.024Z,99312.19
2022-10-14T03:02:14.364Z,99309.16
2022-10-14T03:03:17.199Z,99306.66
2022-10-14T03:04:19.440Z,99301.66
2022-10-14T03:05:21.610Z,99305.91
2022-10-14T03:06:23.841Z,99305.97
2022-10-14T03:07:26.351Z,99292.03
2022-10-14T03:08:30.756Z,99299.94
2022-10-14T03:09:34.462Z,99314.09
2022-10-14T03:10:36.696Z,99300.03
2022-10-14T03:11:39.000Z,99301.72
2022-10-14T03:12:44.616Z,99300.03
2022-10-14T03:13:55.636Z,99301.81
2022-10-14T03:14:57.878Z,99294.84
2022-10-14T03:16:01.541Z,99308.75
2022-10-14T03:17:03.805Z,99300.72
2022-10-14T03:18:08.721Z,99297.47
2022-10-14T03:19:18.291Z,99284.38
2022-10-14T03:20:24.125Z,99292.81
2022-10-14T03:21:30.838Z,99284.13
2022-10-14T03:22:33.631Z,99282.28
2022-10-14T03:23:35.793Z,99284.22
2022-10-14T03:24:38.411Z,99275.31
2022-10-14T03:26:13.084Z,99285.59
2022-10-14T03:27:18.882Z,99275.78
2022-10-14T03:28:24.734Z,99279.56
2022-10-14T03:29:34.950Z,99277.94
2022-10-14T03:30:50.768Z,99271.75
2022-10-14T03:32:06.537Z,99277.41
2022-10-14T03:33:33.078Z,99267.47
2022-10-14T03:34:56.308Z,99276.41
2022-10-14T03:36:00.078Z,99276.75
2022-10-14T03:37:15.414Z,99272.13
2022-10-14T03:38:24.312Z,99265.22
2022-10-14T03:39:28.508Z,99266.41
2022-10-14T03:40:37.652Z,99259.91
2022-10-14T03:41:43.829Z,99262.44
2022-10-14T03:42:47.856Z,99261.25
2022-10-14T03:43:51.288Z,99266.38
2022-10-14T03:44:53.723Z,99264.53
2022-10-14T03:46:00.934Z,99264.97
2022-10-14T03:47:04.191Z,99270.34
2022-10-14T03:48:08.611Z,99263.75
2022-10-14T03:49:14.900Z,99261.28
2022-10-14T03:50:17.413Z,99273.50
2022-10-14T03:51:24.028Z,99270.25
2022-10-14T03:52:29.178Z,99258.88
2022-10-14T03:53:40.712Z,99259.72
2022-10-14T03:54:43.233Z,99261.50
2022-10-14T03:55:47.640Z,99249.03
2022-10-14T03:56:50.811Z,99248.50
2022-10-14T03:57:54.728Z,99253.91
2022-10-14T03:58:57.018Z,99253.19
2022-10-14T04:00:00.420Z,99250.34
2022-10-14T04:01:15.960Z,99255.63
2022-10-14T04:02:50.584Z,99254.59
2022-10-14T04:04:13.094Z,99255.69
2022-10-14T04:05:15.654Z,99246.63
2022-10-14T04:06:20.362Z,99247.72
2022-10-14T04:07:24.762Z,99232.91
2022-10-14T04:08:31.864Z,99241.44
2022-10-14T04:09:41.550Z,99238.34
2022-10-14T04:10:45.822Z,99239.34
2022-10-14T04:11:50.477Z,99235.38
2022-10-14T04:13:22.558Z,99239.97
2022-10-14T04:14:26.422Z,99238.41
2022-10-14T04:15:28.658Z,99239.50
2022-10-14T04:16:56.841Z,99236.44
2022-10-14T04:17:59.029Z,99236.19
2022-10-14T04:19:01.209Z,99229.28
2022-10-14T04:20:03.750Z,99236.25
2022-10-14T04:21:10.526Z,99232.38
2022-10-14T04:22:12.734Z,99242.94
2022-10-14T04:23:14.911Z,99237.03
2022-10-14T04:24:20.596Z,99239.44
2022-10-14T04:25:28.142Z,99243.28
2022-10-14T04:26:37.523Z,99237.94
2022-10-14T04:27:46.039Z,99241.53
2022-10-14T04:28:48.411Z,99239.22
2022-10-14T04:30:06.743Z,99238.97
2022-10-14T04:31:19.715Z,99232.84
2022-10-14T04:32:35.165Z,99227.44
2022-10-14T04:33:39.203Z,99230.91
2022-10-14T04:34:50.218Z,99224.25
2022-10-14T04:36:00.110Z,99232.94
2022-10-14T04:37:08.097Z,99229.06
2022-10-14T04:38:33.815Z,99233.31
2022-10-14T04:39:40.380Z,99232.63
2022-10-14T04:40:45.386Z,99228.50
2022-10-14T04:41:48.272Z,99226.34
2022-10-14T04:42:58.138Z,99230.47
2022-10-14T04:44:07.031Z,99220.44
2022-10-14T04:45:16.191Z,99232.44
2022-10-14T04:46:24.745Z,99233.81
2022-10-14T04:47:27.210Z,99220.41
2022-10-14T04:48:34.255Z,99231.28
2022-10-14T04:49:37.124Z,99222.31
2022-10-14T04:50:46.168Z,99225.56
2022-10-14T04:52:02.243Z,99224.88
2022-10-14T04:53:26.975Z,99228.34
2022-10-14T04:54:39.028Z,99222.78
2022-10-14T04:55:41.305Z,99226.81
2022-10-14T04:56:43.466Z,99217.66
2022-10-14T04:57:47.148Z,99216.09
2022-10-14T04:58:50.062Z,99223.88
2022-10-14T04:59:52.404Z,99219.19
2022-10-14T05:00:57.790Z,99213.78
2022-10-14T05:02:07.837Z,99201.03
2022-10-14T05:03:17.565Z,99203.44
2022-10-14T05:04:19.960Z,99207.81
2022-10-14T05:05:24.092Z,99197.06
2022-10-14T05:06:29.653Z,99201.66
2022-10-14T05:07:31.915Z,99205.59
2022-10-14T05:08:44.502Z,99198.31
2022-10-14T05:09:52.087Z,99205.25
2022-10-14T05:11:02.449Z,99198.16
2022-10-14T05:12:16.738Z,99193.75
2022-10-14T05:13:24.997Z,99198.63
2022-10-14T05:14:36.318Z,99201.09
2022-10-14T05:15:50.051Z,99194.09
2022-10-14T05:16:52.821Z,99197.81
2022-10-14T05:18:02.104Z,99199.28
2022-10-14T05:19:20.557Z,99197.59
2022-10-14T05:20:26.736Z,99189.22
2022-10-14T05:21:32.269Z,99200.38
2022-10-14T05:22:47.821Z,99192.41
2022-10-14T05:23:50.401Z,99190.53
2022-10-14T05:24:53.242Z,99181.94
2022-10-14T05:25:57.541Z,99194.84
2022-10-14T05:27:00.538Z,99184.41
2022-10-14T05:28:05.118Z,99192.94
2022-10-14T05:29:10.491Z,99198.13
2022-10-14T05:30:14.747Z,99192.06
2022-10-14T05:31:22.547Z,99193.00
2022-10-14T05:32:33.816Z,99192.56
2022-10-14T05:33:39.615Z,99197.38
2022-10-14T05:34:42.243Z,99191.66
2022-10-14T05:36:04.128Z,99196.91
2022-10-14T05:37:09.403Z,99194.09
2022-10-14T05:38:22.559Z,99200.09
2022-10-14T05:39:25.093Z,99190.16
2022-10-14T05:40:27.543Z,99197.81
2022-10-14T05:41:30.468Z,99191.47
2022-10-14T05:42:34.469Z,99187.03
2022-10-14T05:43:37.398Z,99177.06
2022-10-14T05:44:41.674Z,99184.94
2022-10-14T05:45:44.072Z,99187.16
2022-10-14T05:46:46.366Z,99191.28
2022-10-14T05:47:49.993Z,99185.84
2022-10-14T05:48:54.013Z,99191.88
2022-10-14T05:49:56.225Z,99195.00
2022-10-14T05:51:02.149Z,99187.91
2022-10-14T05:52:05.356Z,99184.31
2022-10-14T05:53:08.766Z,99193.94
2022-10-14T05:54:16.709Z,99190.09
2022-10-14T05:55:19.720Z,99186.59
2022-10-14T05:56:23.174Z,99188.16
2022-10-14T05:57:27.120Z,99174.13
2022-10-14T05:58:29.446Z,99187.66
2022-10-14T05:59:34.592Z,99180.63
2022-10-14T06:00:36.845Z,99187.13
2022-10-14T06:01:43.693Z,99191.91
2022-10-14T06:02:46.416Z,99189.66
2022-10-14T06:03:52.604Z,99192.97
2022-10-14T06:04:55.382Z,99189.13
2022-10-14T06:05:59.060Z,99192.16
2022-10-14T06:07:01.467Z,99192.56
2022-10-14T06:08:05.008Z,99188.38
2022-10-14T06:09:11.480Z,99176.75
2022-10-14T06:10:14.140Z,99188.38
2022-10-14T06:11:16.371Z,99189.94
2022-10-14T06:12:19.627Z,99187.22
2022-10-14T06:13:22.848Z,99184.31
2022-10-14T06:14:26.213Z,99182.41
2022-10-14T06:15:28.446Z,99180.28
2022-10-14T06:16:31.410Z,99188.47
2022-10-14T06:17:33.824Z,99187.81
2022-10-14T06:18:36.698Z,99198.97
2022-10-14T06:19:39.589Z,99191.84
2022-10-14T06:20:41.755Z,99190.84
2022-10-14T06:21:44.783Z,99192.22
2022-10-14T06:22:47.070Z,99197.81
2022-10-14T06:23:49.255Z,99181.31
2022-10-14T06:24:51.538Z,99187.63
2022-10-14T06:25:53.770Z,99189.97
2022-10-14T06:26:55.903Z,99192.59
2022-10-14T06:28:05.235Z,99195.06
2022-10-14T06:29:07.612Z,99197.63
2022-10-14T06:30:10.564Z,99198.22
2022-10-14T06:31:12.786Z,99195.97
2022-10-14T06:32:15.011Z,99198.44
2022-10-14T06:33:17.385Z,99190.53
2022-10-14T06:34:22.994Z,99196.47
2022-10-14T06:35:25.303Z,99205.41
2022-10-14T06:36:27.534Z,99202.22
2022-10-14T06:37:29.800Z,99200.09
2022-10-14T06:38:32.277Z,99201.63
2022-10-14T06:39:34.486Z,99202.34
2022-10-14T06:40:37.270Z,99201.31
2022-10-14T06:41:39.442Z,99197.34
2022-10-14T06:42:48.198Z,99201.81
2022-10-14T06:43:50.508Z,99196.72
2022-10-14T06:44:52.668Z,99178.84
2022-10-14T06:45:57.213Z,99196.91
2022-10-14T06:47:00.046Z,99189.50
2022-10-14T06:48:04.342Z,99194.25
2022-10-14T06:49:06.638Z,99200.13
2022-10-14T06:50:09.047Z,99204.56
2022-10-14T06:51:11.503Z,99204.56
2022-10-14T06:52:13.761Z,99211.88
2022-10-14T06:53:16.007Z,99206.19
2022-10-14T06:54:18.396Z,99204.56
2022-10-14T06:55:20.639Z,99200.56
2022-10-14T06:56:22.835Z,99202.41
2022-10-14T06:57:25.090Z,99206.16
2022-10-14T06:58:27.465Z,99195.53
2022-10-14T06:59:29.726Z,99196.41
2022-10-14T07:00:31.980Z,99198.09
2022-10-14T07:01:34.278Z,99194.78
2022-10-14T07:02:39.797Z,99191.44
2022-10-14T07:03:42.043Z,99194.34
2022-10-14T07:04:44.296Z,99187.97
2022-10-14T07:05:46.584Z,99185.91
2022-10-14T07:06:49.138Z,99191.72
2022-10-14T07:07:51.932Z,99187.44
2022-10-14T07:08:54.395Z,99184.56
2022-10-14T07:09:58.075Z,99187.78
2022-10-14T07:11:00.386Z,99188.47
2022-10-14T07:12:02.645Z,99190.00
2022-10-14T07:13:05.226Z,99177.34
2022-10-14T07:14:07.535Z,99189.56
2022-10-14T07:15:10.444Z,99184.06
2022-10-14T07:16:12.788Z,99180.56
2022-10-14T07:17:15.047Z,99185.13
2022-10-14T07:18:17.475Z,99187.53
2022-10-14T07:19:19.793Z,99190.59
2022-10-14T07:20:22.324Z,99185.28
2022-10-14T07:21:27.578Z,99195.13
2022-10-14T07:22:29.955Z,99192.47
2022-10-14T07:23:32.175Z,99197.50
2022-10-14T07:24:34.458Z,99206.81
2022-10-14T07:25:36.753Z,99196.34
2022-10-14T07:26:38.985Z,99212.59
2022-10-14T07:27:41.295Z,99199.91
2022-10-14T07:28:43.589Z,99205.09
2022-10-14T07:29:46.324Z,99198.69
2022-10-14T07:31:14.573Z,99207.72
2022-10-14T07:32:16.753Z,99208.31
2022-10-14T07:33:18.983Z,99211.22
2022-10-14T07:34:21.353Z,99217.88
2022-10-14T07:35:25.579Z,99214.88
2022-10-14T07:36:28.450Z,99215.72
2022-10-14T07:37:30.816Z,99224.03
2022-10-14T07:38:33.702Z,99216.91
2022-10-14T07:39:36.147Z,99229.69
2022-10-14T07:40:38.535Z,99222.84
2022-10-14T07:41:41.065Z,99223.09
2022-10-14T07:42:43.688Z,99221.38
2022-10-14T07:43:49.048Z,99213.06
2022-10-14T07:44:54.031Z,99216.25
2022-10-14T07:46:00.860Z,99211.53
2022-10-14T07:47:03.296Z,99217.09
2022-10-14T07:48:05.902Z,99215.69
2022-10-14T07:49:15.826Z,99222.19
2022-10-14T07:50:18.698Z,99212.66
2022-10-14T07:51:21.060Z,99211.94
2022-10-14T07:52:23.227Z,99213.06
2022-10-14T07:53:26.415Z,99216.44
2022-10-14T07:54:30.975Z,99212.28
2022-10-14T07:55:33.179Z,99214.19
2022-10-14T07:56:39.302Z,99222.59
2022-10-14T07:57:41.458Z,99218.47
2022-10-14T07:58:44.457Z,99214.03
2022-10-14T07:59:46.939Z,99218.50
2022-10-14T08:00:51.426Z,99216.38
2022-10-14T08:01:54.125Z,99222.88
2022-10-14T08:02:56.394Z,99229.69
2022-10-14T08:03:59.121Z,99220.03
2022-10-14T08:05:25.623Z,99229.59
2022-10-14T08:06:23.793Z,99225.31
2022-10-14T08:07:26.955Z,99226.44
2022-10-14T08:08:29.691Z,99236.00
2022-10-14T08:09:35.325Z,99222.31
2022-10-14T08:10:39.371Z,99227.34
2022-10-14T08:11:43.016Z,99224.03
2022-10-14T08:12:46.219Z,99233.75
2022-10-14T08:13:50.142Z,99234.13
2022-10-14T08:14:55.502Z,99231.28
2022-10-14T08:15:57.895Z,99225.94
2022-10-14T08:17:00.269Z,99222.72
2022-10-14T08:18:02.746Z,99225.09
2022-10-14T08:19:14.234Z,99230.38
2022-10-14T08:20:17.195Z,99226.50
2022-10-14T08:21:21.051Z,99233.72
2022-10-14T08:22:23.679Z,99230.19
2022-10-14T08:23:26.851Z,99228.97
2022-10-14T08:24:29.203Z,99225.19
2022-10-14T08:25:31.691Z,99232.56
2022-10-14T08:26:48.853Z,99228.88
2022-10-14T08:27:51.176Z,99223.28
2022-10-14T08:28:53.568Z,99219.41
2022-10-14T08:29:55.933Z,99228.59
2022-10-14T08:31:01.097Z,99215.84
2022-10-14T08:32:03.413Z,99226.69
2022-10-14T08:33:05.770Z,99233.22
2022-10-14T08:34:07.962Z,99226.97
2022-10-14T08:35:10.308Z,99221.50
2022-10-14T08:36:12.719Z,99218.22
2022-10-14T08:37:15.616Z,99216.88
2022-10-14T08:38:19.076Z,99220.75
2022-10-14T08:39:21.821Z,99218.88
2022-10-14T08:40:25.418Z,99214.81
2022-10-14T08:41:59.917Z,99219.63
2022-10-14T08:43:13.696Z,99219.16
2022-10-14T08:44:33.865Z,99217.56
2022-10-14T08:45:45.509Z,99209.97
2022-10-14T08:47:02.154Z,99215.84
2022-10-14T08:48:19.240Z,99213.38
2022-10-14T08:49:52.720Z,99218.66
2022-10-14T08:50:59.203Z,99216.59
2022-10-14T08:52:08.729Z,99228.31
2022-10-14T08:53:19.419Z,99224.53
2022-10-14T08:54:30.632Z,99217.75
2022-10-14T08:55:37.348Z,99229.25
2022-10-14T08:56:39.778Z,99220.53
2022-10-14T08:57:50.383Z,99216.38
2022-10-14T08:58:55.770Z,99216.59
2022-10-14T08:59:58.070Z,99214.69
2022-10-14T09:01:19.733Z,99217.50
2022-10-14T09:02:47.993Z,99225.44
2022-10-14T09:03:57.439Z,99226.09
2022-10-14T09:05:02.239Z,99225.72
2022-10-14T09:06:22.366Z,99223.34
2022-10-14T09:07:25.367Z,99225.94
2022-10-14T09:08:38.368Z,99227.69
2022-10-14T09:09:44.720Z,99230.59
2022-10-14T09:10:47.204Z,99227.09
2022-10-14T09:11:59.081Z,99232.13
2022-10-14T09:13:16.018Z,99234.34
2022-10-14T09:14:23.870Z,99227.56
2022-10-14T09:15:40.790Z,99231.81
2022-10-14T09:16:46.702Z,99226.59
2022-10-14T09:19:15.182Z,99211.59
2022-10-14T09:20:21.116Z,99223.13
2022-10-14T09:21:54.525Z,99224.81
2022-10-14T09:23:11.904Z,99224.06
2022-10-14T09:24:29.090Z,99226.59
2022-10-14T09:25:35.036Z,99220.75
2022-10-14T09:26:43.960Z,99223.19
2022-10-14T09:28:54.265Z,99214.66
2022-10-14T09:30:01.566Z,99223.44
2022-10-14T09:31:05.661Z,99225.44
2022-10-14T09:32:12.976Z,99222.59
2022-10-14T09:33:20.662Z,99222.78
2022-10-14T09:34:31.281Z,99225.94
2022-10-14T09:35:37.607Z,99218.91
2022-10-14T09:36:41.045Z,99209.19
2022-10-14T09:37:43.351Z,99214.31
2022-10-14T09:38:53.298Z,99217.09
2022-10-14T09:40:13.084Z,99211.59
2022-10-14T09:41:16.827Z,99220.75
2022-10-14T09:42:40.700Z,99205.94
2022-10-14T09:44:18.689Z,99207.44
2022-10-14T09:45:23.059Z,99213.22
2022-10-14T09:46:25.296Z,99205.91
2022-10-14T09:47:29.193Z,99213.56
2022-10-14T09:48:39.207Z,99208.41
2022-10-14T09:49:45.876Z,99203.00
2022-10-14T09:50:55.598Z,99205.75
2022-10-14T09:51:58.004Z,99201.13
2022-10-14T09:53:10.802Z,99197.25
2022-10-14T09:54:23.905Z,99203.22
2022-10-14T09:55:26.168Z,99209.88
2022-10-14T09:56:42.419Z,99204.22
2022-10-14T09:57:44.744Z,99206.25
2022-10-14T09:58:53.785Z,99200.66
2022-10-14T10:00:00.631Z,99197.84
2022-10-14T10:01:04.068Z,99205.69
2022-10-14T10:02:21.925Z,99197.31
2022-10-14T10:03:27.175Z,99186.41
2022-10-14T10:04:32.073Z,99193.88
2022-10-14T10:05:35.919Z,99199.16
2022-10-14T10:06:53.115Z,99192.47
2022-10-14T10:08:14.794Z,99183.44
2022-10-14T10:09:20.575Z,99193.44
2022-10-14T10:10:22.805Z,99186.56
2022-10-14T10:11:39.212Z,99189.28
2022-10-14T10:12:46.269Z,99189.50
2022-10-14T10:13:48.644Z,99185.50
2022-10-14T10:15:05.959Z,99180.38
2022-10-14T10:16:19.655Z,99185.50
2022-10-14T10:17:32.612Z,99180.91
2022-10-14T10:18:34.848Z,99174.97
2022-10-14T10:19:52.828Z,99183.91
2022-10-14T10:21:07.436Z,99176.56
2022-10-14T10:22:22.715Z,99172.00
2022-10-14T10:23:25.480Z,99171.06
2022-10-14T10:24:30.836Z,99171.59
2022-10-14T10:25:33.362Z,99176.22
2022-10-14T10:26:35.653Z,99172.75
2022-10-14T10:27:43.123Z,99174.00
2022-10-14T10:28:47.141Z,99169.56
2022-10-14T10:29:49.450Z,99167.66
2022-10-14T10:31:15.116Z,99166.59
2022-10-14T10:32:38.816Z,99169.66
2022-10-14T10:34:06.872Z,99167.75
2022-10-14T10:35:22.187Z,99162.47
2022-10-14T10:36:36.681Z,99171.28
2022-10-14T10:38:01.705Z,99155.66
2022-10-14T10:39:12.185Z,99169.78
2022-10-14T10:40:30.190Z,99168.78
2022-10-14T10:41:53.716Z,99168.53
2022-10-14T10:43:01.894Z,99165.66
2022-10-14T10:44:22.562Z,99162.13
2022-10-14T10:45:40.707Z,99152.38
2022-10-14T10:47:16.477Z,99164.81
2022-10-14T10:48:47.431Z,99159.25
2022-10-14T10:50:04.958Z,99162.69
2022-10-14T10:51:14.617Z,99154.28
2022-10-14T10:52:43.269Z,99151.31
2022-10-14T10:53:50.820Z,99151.53
2022-10-14T10:54:58.259Z,99151.88
2022-10-14T10:56:38.818Z,99158.75
2022-10-14T10:57:56.105Z,99157.69
2022-10-14T10:59:06.548Z,99154.41
2022-10-14T11:00:13.830Z,99153.44
2022-10-14T11:01:41.060Z,99150.59
2022-10-14T11:03:14.333Z,99152.38
2022-10-14T11:04:34.113Z,99163.31
2022-10-14T11:05:39.477Z,99149.41
2022-10-14T11:07:27.008Z,99159.28
2022-10-14T11:09:11.448Z,99156.78
2022-10-14T11:10:51.173Z,99157.66
2022-10-14T11:12:03.526Z,99162.38
2022-10-14T11:13:10.541Z,99151.25
2022-10-14T11:14:27.857Z,99152.94
2022-10-14T11:15:58.328Z,99145.59
2022-10-14T11:17:14.601Z,99148.50
2022-10-14T11:18:26.913Z,99145.13
2022-10-14T11:19:39.402Z,99148.41
2022-10-14T11:21:13.840Z,99133.91
2022-10-14T11:22:22.190Z,99132.88
2022-10-14T11:23:48.979Z,99141.72
2022-10-14T11:25:17.836Z,99133.19
2022-10-14T11:26:47.628Z,99129.03
2022-10-14T11:28:22.013Z,99125.09
2022-10-14T11:29:45.988Z,99127.41
2022-10-14T11:31:06.964Z,99127.97
2022-10-14T11:32:24.263Z,99115.88
2022-10-14T11:34:05.133Z,99117.34
2022-10-14T11:35:19.122Z,99113.34
2022-10-14T11:36:37.603Z,99105.41
2022-10-14T11:37:39.764Z,99102.47
2022-10-14T11:38:48.266Z,99115.78
2022-10-14T11:39:57.616Z,99106.66
2022-10-14T11:41:28.698Z,99095.84
2022-10-14T11:42:44.536Z,99093.13
2022-10-14T11:44:32.842Z,99089.88
2022-10-14T11:45:52.246Z,99073.94
2022-10-14T11:46:59.518Z,99072.06
2022-10-14T11:48:10.825Z,99071.59
2022-10-14T11:49:20.765Z,99071.94
2022-10-14T11:50:39.351Z,99068.22
2022-10-14T11:51:51.369Z,99060.56
2022-10-14T11:53:04.251Z,99047.94
2022-10-14T11:54:28.477Z,99045.22
2022-10-14T11:55:40.230Z,99052.50
2022-10-14T11:57:13.232Z,99053.75
2022-10-14T11:58:25.833Z,99050.38
2022-10-14T11:59:28.259Z,99053.97
2022-10-14T12:01:09.420Z,99053.78
2022-10-14T12:02:27.395Z,99048.00
2022-10-14T12:03:59.799Z,99045.44
2022-10-14T12:05:09.056Z,99049.47
2022-10-14T12:06:48.766Z,99048.25
2022-10-14T12:08:04.484Z,99039.38
2022-10-14T12:09:44.369Z,99040.84
2022-10-14T12:11:02.544Z,99030.41
2022-10-14T12:12:11.725Z,99015.69
2022-10-14T12:13:16.707Z,99016.97
2022-10-14T12:14:30.025Z,99016.97
2022-10-14T12:15:32.294Z,99023.25
2022-10-14T12:16:34.639Z,99023.56
2022-10-14T12:17:48.945Z,99022.72
2022-10-14T12:18:55.714Z,99024.25
2022-10-14T12:20:16.075Z,99017.16
2022-10-14T12:21:27.956Z,99023.50
2022-10-14T12:22:32.867Z,99015.88
2022-10-14T12:23:42.279Z,99021.16
2022-10-14T12:24:53.529Z,99019.56
2022-10-14T12:26:04.346Z,99011.91
2022-10-14T12:27:14.791Z,99022.47
2022-10-14T12:28:20.854Z,99019.41
2022-10-14T12:29:33.631Z,99023.53
2022-10-14T12:30:41.454Z,99031.09
2022-10-14T12:31:50.441Z,99024.00
2022-10-14T12:33:02.551Z,99033.22
2022-10-14T12:34:10.840Z,99033.31
2022-10-14T12:35:50.824Z,99025.38
2022-10-14T12:36:54.436Z,99028.63
2022-10-14T12:38:03.825Z,99023.78
2022-10-14T12:39:17.838Z,99020.88
2022-10-14T12:40:28.506Z,99015.88
2022-10-14T12:41:40.070Z,99011.44
2022-10-14T12:42:42.136Z,99008.44
2022-10-14T12:44:02.409Z,99014.19
2022-10-14T12:45:16.578Z,99015.06
2022-10-14T12:46:18.861Z,99017.44
2022-10-14T12:47:31.959Z,99016.25
2022-10-14T12:48:35.725Z,99020.41
2022-10-14T12:49:37.882Z,99016.00
2022-10-14T12:50:42.626Z,99013.31
2022-10-14T12:52:06.603Z,99024.66
2022-10-14T12:53:21.434Z,99018.25
2022-10-14T12:54:25.243Z,99016.03
2022-10-14T12:55:30.167Z,99014.31
2022-10-14T12:56:40.245Z,99019.41
2022-10-14T12:57:43.985Z,99021.97
2022-10-14T12:59:07.948Z,99028.88
2022-10-14T13:00:30.607Z,99033.69
2022-10-14T13:01:36.387Z,99034.72
2022-10-14T13:02:45.590Z,99029.13
2022-10-14T13:05:08.673Z,99035.50
2022-10-14T13:06:41.029Z,99028.81
2022-10-14T13:07:48.741Z,99040.84
2022-10-14T13:09:18.350Z,99038.44
2022-10-14T13:10:26.605Z,99034.13
2022-10-14T13:11:28.831Z,99039.44
2022-10-14T13:12:31.735Z,99031.06
2022-10-14T13:13:47.663Z,99030.53
2022-10-14T13:15:19.527Z,99016.91
2022-10-14T13:16:21.611Z,99034.22
2022-10-14T13:17:44.666Z,99035.16
2022-10-14T13:18:46.774Z,99032.69
2022-10-14T13:19:49.043Z,99039.09
2022-10-14T13:20:52.450Z,99031.88
2022-10-14T13:21:54.810Z,99037.78
2022-10-14T13:23:21.413Z,99017.59
2022-10-14T13:24:39.194Z,99018.88
2022-10-14T13:25:43.424Z,99018.19
2022-10-14T13:26:54.435Z,99017.63
2022-10-14T13:28:02.386Z,99019.31
2022-10-14T13:29:15.134Z,99017.16
2022-10-14T13:30:23.516Z,99021.13
2022-10-14T13:31:50.601Z,99020.16
2022-10-14T13:33:07.640Z,99018.47
2022-10-14T13:34:31.438Z,99020.91
2022-10-14T13:35:46.627Z,99015.56